METAR AND TAF INFORMATION
METAR FOR EFOU
ADDS - METARS form results

(0729 UTC 28 July 2021)
Data provider http://aviationweather.gov/metar/data/
 
METAR text: EFOU 280720Z AUTO 26004KT 220V290 CAVOK 25/13 Q1011
Conditions at: EFOU (OULU/ULEABORG , FI) observed 0720 UTC 28 July 2021
Temperature: 25.0°C (77°F)
Dewpoint: 13.0°C (55°F) [RH = 47%]
Pressure (altimeter): 29.85 inches Hg (1011.0 mb)
Winds: from the W (260 degrees) at 5 MPH (4 knots; 2.1 m/s)
Visibility: 6 or more miles (10+ km)
Ceiling: ceiling and visibility are OK
Clouds: unknown
Weather: no significant weather observed at this time

METAR text: EFOU 280650Z AUTO VRB02KT CAVOK 24/13 Q1011
Conditions at: EFOU (OULU/ULEABORG , FI) observed 0650 UTC 28 July 2021
Temperature: 24.0°C (75°F)
Dewpoint: 13.0°C (55°F) [RH = 50%]
Pressure (altimeter): 29.85 inches Hg (1011.0 mb)
Winds: variable direction winds at 2 MPH (2 knots; 1.0 m/s)
Visibility: 6 or more miles (10+ km)
Ceiling: ceiling and visibility are OK
Clouds: unknown
Weather: no significant weather observed at this time

Forecast for: EFOU (OULU/ULEABORG , FI)
Text: TAF EFOU 280526Z 2806/2906 19005KT CAVOK
Forecast period: 0600 UTC 28 July 2021 to 0600 UTC 29 July 2021
Forecast type: FROM: standard forecast or significant change
Winds: from the S (190 degrees) at 6 MPH (5 knots; 2.6 m/s)
Visibility: 6 or more miles (10+ km)
Ceiling: unknown
Clouds: missing
Weather: NSW  (no significant weather)

 AIRPORT MAP

 RUNWAY INFORMATION
Runway 12 Runway length 8205 ft Runway width 197 ft
Runway elevation 47 ft Runway displaced threshold 0 ft Runway heading 121
Runway 30 Runway length 8205 ft Runway width 197 ft
Runway elevation 33 ft Runway displaced threshold 0 ft Runway heading 301

 AIRPORT FREQUENCIES
Type ATIS Name ATIS Frequency 135.45 MHZ
Type TWR Name TWR Frequency 124.4 MHZ

 AIRPORT NEAR NAVIGATION AIDS
Type NDB Name Laanila Frequency 350 KHZ
Type VOR-DME Name Oulu Frequency 113300 KHZ



Powered by Virtual Airlines Manager [v2.6.2]